Time;durP1;ratioP1;P1;durP2;ratioP2;P2;SDS_P1;SDS_P2;PMS_P1;PMS_P2;Temp;Humidity;BMP_temperature;BMP_pressure;BME280_temperature;BME280_humidity;BME280_pressure;Samples;Min_cycle;Max_cycle;Signal;HPM_P1;HPM_P2
2023/05/22 00:00:06;;;;;;;30.52;19.98;;;;;;;14.75;100.00;101329.69;5094883;28;20027;-71
2023/05/22 00:02:41;;;;;;;31.98;19.50;;;;;;;14.70;100.00;101340.03;5099791;28;20017;-71
2023/05/22 00:05:11;;;;;;;31.20;21.05;;;;;;;14.69;100.00;101327.50;5085954;28;20480;-71
2023/05/22 00:07:37;;;;;;;33.03;22.13;;;;;;;14.71;100.00;101316.53;5099993;28;20110;-72
2023/05/22 00:10:03;;;;;;;34.88;19.67;;;;;;;14.68;100.00;101326.66;5075755;28;20490;-71
2023/05/22 00:12:29;;;;;;;30.77;20.40;;;;;;;14.62;100.00;101319.03;5086930;28;20031;-71
2023/05/22 00:14:54;;;;;;;34.03;19.67;;;;;;;14.59;100.00;101318.41;5085100;28;20202;-72
2023/05/22 00:17:19;;;;;;;36.00;21.90;;;;;;;14.61;100.00;101317.31;5098574;28;20027;-72
2023/05/22 00:19:45;;;;;;;31.92;20.95;;;;;;;14.60;100.00;101314.72;5081842;28;20361;-71
2023/05/22 00:22:10;;;;;;;36.92;23.02;;;;;;;14.62;100.00;101318.16;5102076;28;20177;-71
2023/05/22 00:24:37;;;;;;;37.22;24.15;;;;;;;14.59;100.00;101319.25;5104253;28;20036;-71
2023/05/22 00:27:02;;;;;;;32.50;21.95;;;;;;;14.57;100.00;101318.53;5083090;28;20017;-71
2023/05/22 00:29:28;;;;;;;36.67;23.95;;;;;;;14.55;100.00;101322.34;5090649;28;20038;-71
2023/05/22 00:31:53;;;;;;;30.63;21.05;;;;;;;14.46;100.00;101315.84;5075861;28;20046;-72
2023/05/22 00:34:18;;;;;;;34.40;22.55;;;;;;;14.46;100.00;101319.41;5092261;28;20043;-71
2023/05/22 00:36:43;;;;;;;37.25;22.92;;;;;;;14.45;100.00;101317.69;5084813;28;20116;-71
2023/05/22 00:39:09;;;;;;;35.17;21.98;;;;;;;14.50;100.00;101309.19;5098272;28;20314;-71
2023/05/22 00:41:34;;;;;;;32.05;21.48;;;;;;;14.51;100.00;101302.81;5107762;28;20039;-72
2023/05/22 00:44:01;;;;;;;33.97;22.90;;;;;;;14.49;100.00;101302.06;5082930;28;20233;-71
2023/05/22 00:46:26;;;;;;;34.50;21.20;;;;;;;14.45;100.00;101306.00;5101221;28;20074;-71
2023/05/22 00:48:52;;;;;;;34.40;23.88;;;;;;;14.44;100.00;101309.72;5070960;28;20377;-72
2023/05/22 00:51:20;;;;;;;33.10;22.45;;;;;;;14.38;100.00;101315.59;5076019;28;20471;-72
2023/05/22 00:53:47;;;;;;;35.38;21.75;;;;;;;14.32;100.00;101317.00;5101636;28;20031;-71
2023/05/22 00:56:14;;;;;;;32.13;20.90;;;;;;;14.30;100.00;101314.38;5101160;28;20411;-71
2023/05/22 00:58:40;;;;;;;33.40;21.98;;;;;;;14.29;100.00;101307.28;5073558;28;20024;-71
2023/05/22 01:01:08;;;;;;;31.92;21.27;;;;;;;14.25;100.00;101311.22;5094942;28;20059;-71
2023/05/22 01:03:36;;;;;;;31.63;20.77;;;;;;;14.21;100.00;101315.13;5100935;28;20024;-71
2023/05/22 01:06:01;;;;;;;30.88;19.85;;;;;;;14.13;100.00;101309.53;5083273;28;20106;-72
2023/05/22 01:08:27;;;;;;;32.10;20.80;;;;;;;14.12;100.00;101314.03;5103182;28;20062;-72
2023/05/22 01:11:07;;;;;;;32.08;20.40;;;;;;;14.08;100.00;101309.03;5078437;28;20055;-72
2023/05/22 01:13:59;;;;;;;34.05;21.48;;;;;;;14.08;100.00;101306.31;5073031;28;20026;-72
2023/05/22 01:16:36;;;;;;;33.72;21.83;;;;;;;14.08;100.00;101300.91;5094544;28;20039;-71
2023/05/22 01:19:29;;;;;;;32.17;20.15;;;;;;;14.05;100.00;101315.53;5103179;28;20020;-71
2023/05/22 01:22:20;;;;;;;34.38;21.88;;;;;;;13.97;100.00;101308.03;5092408;28;20413;-72
2023/05/22 01:25:16;;;;;;;33.70;21.95;;;;;;;14.06;100.00;101300.19;5091038;28;20423;-72
2023/05/22 01:27:50;;;;;;;33.58;23.58;;;;;;;13.99;100.00;101300.66;5079606;28;20074;-72
2023/05/22 01:30:46;;;;;;;32.80;21.55;;;;;;;13.97;100.00;101310.75;5100912;28;20036;-71
2023/05/22 01:33:15;;;;;;;33.47;21.17;;;;;;;13.92;100.00;101302.13;5071979;28;20027;-72
2023/05/22 01:35:42;;;;;;;38.38;23.65;;;;;;;13.94;100.00;101302.88;5099791;28;20104;-72
2023/05/22 01:38:09;;;;;;;34.40;23.38;;;;;;;13.93;100.00;101305.72;5085058;28;20354;-72
2023/05/22 01:40:35;;;;;;;35.92;22.17;;;;;;;13.90;100.00;101304.13;5093430;28;20538;-72
2023/05/22 01:43:01;;;;;;;36.10;22.13;;;;;;;13.87;100.00;101307.06;5092899;28;20115;-71
2023/05/22 01:45:26;;;;;;;38.65;21.75;;;;;;;13.82;100.00;101303.84;5072963;28;20377;-71
2023/05/22 01:47:51;;;;;;;36.25;23.10;;;;;;;13.84;100.00;101304.59;5091428;28;20028;-72
2023/05/22 01:50:17;;;;;;;35.30;23.40;;;;;;;13.86;100.00;101302.63;5084234;28;20038;-72
2023/05/22 01:52:54;;;;;;;34.60;23.67;;;;;;;13.83;100.00;101300.19;5102542;28;20027;-72
2023/05/22 01:55:35;;;;;;;42.83;22.42;;;;;;;13.86;100.00;101309.88;5082475;28;20105;-72
2023/05/22 01:58:07;;;;;;;34.63;20.80;;;;;;;13.85;100.00;101294.66;5080368;28;20027;-71
2023/05/22 02:00:36;;;;;;;33.97;22.90;;;;;;;13.84;100.00;101296.50;5079046;28;20235;-72
2023/05/22 02:03:12;;;;;;;;;;;;;;;13.94;100.00;101292.06;5099691;28;20027;-71
2023/05/22 02:05:42;;;;;;;33.67;22.67;;;;;;;13.84;100.00;101298.34;5086492;28;19915;-72
2023/05/22 02:08:10;;;;;;;35.65;22.88;;;;;;;13.78;100.00;101286.19;5099359;28;20051;-72
2023/05/22 02:10:36;;;;;;;36.90;23.75;;;;;;;13.78;100.00;101291.59;5080757;28;20119;-71
2023/05/22 02:13:01;;;;;;;34.17;22.40;;;;;;;13.74;100.00;101292.81;5097554;28;20112;-72
2023/05/22 02:15:27;;;;;;;36.67;23.33;;;;;;;13.73;100.00;101288.38;5080202;28;20552;-71
2023/05/22 02:17:52;;;;;;;33.97;24.05;;;;;;;13.69;100.00;101285.09;5097575;28;20023;-71
2023/05/22 02:20:18;;;;;;;33.65;22.08;;;;;;;13.65;100.00;101283.59;5102369;28;20494;-72
2023/05/22 02:22:45;;;;;;;34.22;23.10;;;;;;;13.60;100.00;101292.06;5093043;28;20172;-71
2023/05/22 02:25:15;;;;;;;39.10;24.33;;;;;;;13.61;100.00;101296.47;5073290;28;20131;-72
2023/05/22 02:27:42;;;;;;;32.88;22.13;;;;;;;13.56;100.00;101287.91;5095307;28;20077;-71
2023/05/22 02:30:08;;;;;;;34.55;22.42;;;;;;;13.52;100.00;101291.81;5096066;28;20062;-71
2023/05/22 02:32:33;;;;;;;34.20;23.00;;;;;;;13.53;100.00;101280.03;5092818;28;20066;-72
2023/05/22 02:34:58;;;;;;;36.40;23.88;;;;;;;13.56;100.00;101277.09;5093116;28;20206;-71
2023/05/22 02:37:23;;;;;;;34.55;23.45;;;;;;;13.58;100.00;101283.22;5094884;28;20028;-71
2023/05/22 02:39:49;;;;;;;33.85;23.95;;;;;;;13.58;100.00;101285.91;5085380;28;20282;-71
2023/05/22 02:42:14;;;;;;;36.30;24.27;;;;;;;13.58;100.00;101282.38;5093989;28;20058;-72
2023/05/22 02:44:39;;;;;;;35.13;24.02;;;;;;;13.59;100.00;101281.41;5099160;28;20034;-71
2023/05/22 02:47:07;;;;;;;37.85;23.13;;;;;;;13.55;100.00;101272.66;5084200;28;20072;-71
2023/05/22 02:49:33;;;;;;;36.65;24.42;;;;;;;13.56;100.00;101282.50;5080591;28;20077;-72
2023/05/22 02:51:58;;;;;;;36.72;23.67;;;;;;;13.55;100.00;101275.38;5082654;28;20036;-71
2023/05/22 02:54:23;;;;;;;38.15;22.75;;;;;;;13.58;100.00;101274.25;5084633;28;20126;-74
2023/05/22 02:56:49;;;;;;;38.75;24.33;;;;;;;13.58;100.00;101271.56;5094071;28;20048;-72
2023/05/22 02:59:15;;;;;;;34.95;23.98;;;;;;;13.56;100.00;101274.38;5098650;28;20101;-72
2023/05/22 03:01:40;;;;;;;37.53;23.90;;;;;;;13.55;100.00;101269.97;5098653;28;20020;-71
2023/05/22 03:04:05;;;;;;;35.58;23.25;;;;;;;13.55;100.00;101261.84;5084564;28;20076;-72
2023/05/22 03:06:31;;;;;;;37.17;24.02;;;;;;;13.55;100.00;101263.72;5099219;28;20426;-71
2023/05/22 03:08:56;;;;;;;33.33;25.25;;;;;;;13.51;100.00;101268.47;5082594;28;20034;-71
2023/05/22 03:11:21;;;;;;;37.10;23.92;;;;;;;13.50;100.00;101271.31;5100215;28;20471;-72
2023/05/22 03:13:47;;;;;;;33.08;22.95;;;;;;;13.49;100.00;101267.75;5097345;28;20032;-71
2023/05/22 03:16:12;;;;;;;35.90;23.83;;;;;;;13.46;100.00;101265.31;5077935;28;20039;-71
2023/05/22 03:18:38;;;;;;;39.00;24.65;;;;;;;13.43;100.00;101271.78;5103432;28;20073;-72
2023/05/22 03:21:03;;;;;;;36.00;24.58;;;;;;;13.40;100.00;101268.50;5101200;28;20479;-72
2023/05/22 03:23:29;;;;;;;35.80;24.83;;;;;;;13.38;100.00;101267.72;5081715;28;20032;-71
2023/05/22 03:25:55;;;;;;;38.42;25.08;;;;;;;13.37;100.00;101260.63;5087330;28;20030;-72
2023/05/22 03:28:20;;;;;;;31.55;23.13;;;;;;;13.32;100.00;101262.78;5087794;28;20028;-71
2023/05/22 03:30:49;;;;;;;42.05;25.20;;;;;;;13.28;100.00;101259.47;5076249;28;20399;-71
2023/05/22 03:33:14;;;;;;;35.65;25.20;;;;;;;13.27;100.00;101261.31;5094489;28;20085;-71
2023/05/22 03:35:42;;;;;;;33.60;25.55;;;;;;;13.24;100.00;101258.84;5098053;28;20035;-71
2023/05/22 03:38:07;;;;;;;36.47;25.80;;;;;;;13.21;100.00;101260.94;5102102;28;20165;-71
2023/05/22 03:40:32;;;;;;;36.05;25.63;;;;;;;13.20;100.00;101260.06;5095777;28;20103;-71
2023/05/22 03:42:57;;;;;;;42.28;28.67;;;;;;;13.17;100.00;101257.59;5078164;28;20496;-71
2023/05/22 03:45:23;;;;;;;37.70;26.30;;;;;;;13.17;100.00;101259.44;5098742;28;20024;-71
2023/05/22 03:47:48;;;;;;;40.75;26.05;;;;;;;13.17;100.00;101263.00;5089061;28;20122;-71
2023/05/22 03:50:13;;;;;;;40.53;27.58;;;;;;;13.14;100.00;101257.84;5097629;28;20494;-71
2023/05/22 03:52:39;;;;;;;36.33;26.77;;;;;;;13.12;100.00;101259.81;5079446;28;20032;-71
2023/05/22 03:55:05;;;;;;;35.15;25.08;;;;;;;13.10;100.00;101259.94;5103547;28;20070;-71
2023/05/22 03:57:30;;;;;;;36.50;25.55;;;;;;;13.09;100.00;101258.22;5098448;28;20046;-71
2023/05/22 03:59:56;;;;;;;40.65;25.65;;;;;;;13.10;100.00;101253.66;5100891;28;20024;-72
2023/05/22 04:02:25;;;;;;;35.22;25.60;;;;;;;13.08;100.00;101248.38;5075584;28;20482;-72
2023/05/22 04:04:50;;;;;;;42.33;27.55;;;;;;;13.06;100.00;101247.66;5081479;28;20035;-71
2023/05/22 04:07:17;;;;;;;39.45;26.73;;;;;;;13.03;100.00;101241.63;5085193;28;20023;-71
2023/05/22 04:09:42;;;;;;;34.55;24.95;;;;;;;13.02;100.00;101256.13;5096791;28;20469;-72
2023/05/22 04:12:07;;;;;;;36.53;26.38;;;;;;;12.99;100.00;101251.81;5103097;28;20111;-71
2023/05/22 04:14:33;;;;;;;37.45;26.20;;;;;;;12.99;100.00;101249.09;5087113;28;20024;-71
2023/05/22 04:16:58;;;;;;;40.83;26.85;;;;;;;13.00;100.00;101250.84;5105231;28;20375;-71
2023/05/22 04:19:26;;;;;;;40.72;27.20;;;;;;;12.98;100.00;101251.91;5090844;28;20494;-71
2023/05/22 04:21:52;;;;;;;37.33;27.02;;;;;;;12.99;100.00;101253.63;5093737;28;20059;-71
2023/05/22 04:24:17;;;;;;;44.05;26.63;;;;;;;13.00;100.00;101252.66;5083118;28;20416;-71
2023/05/22 04:26:43;;;;;;;36.83;26.25;;;;;;;12.98;100.00;101255.47;5073829;28;20035;-71
2023/05/22 04:29:09;;;;;;;36.78;26.48;;;;;;;13.00;100.00;101258.03;5083293;28;20024;-71
2023/05/22 04:31:35;;;;;;;38.42;26.42;;;;;;;12.97;100.00;101261.84;5102349;28;20393;-71
2023/05/22 04:34:00;;;;;;;38.00;27.42;;;;;;;13.02;100.00;101259.66;5098038;28;20471;-71
2023/05/22 04:36:26;;;;;;;37.28;26.45;;;;;;;13.03;100.00;101269.47;5082131;28;20099;-71
2023/05/22 04:38:52;;;;;;;40.70;27.85;;;;;;;13.04;100.00;101262.22;5096805;28;20028;-72
2023/05/22 04:41:18;;;;;;;42.50;28.67;;;;;;;13.06;100.00;101273.75;5092326;28;20035;-71
2023/05/22 04:43:43;;;;;;;41.42;28.40;;;;;;;13.05;100.00;101272.06;5104988;28;20032;-72
2023/05/22 04:46:09;;;;;;;41.47;28.33;;;;;;;13.08;100.00;101282.63;5076487;28;20112;-71
2023/05/22 04:48:39;;;;;;;41.95;27.27;;;;;;;13.08;100.00;101285.31;5091234;28;20025;-72
2023/05/22 04:51:05;;;;;;;;;;;;;;;13.19;100.00;101292.56;5103199;28;20475;-72
2023/05/22 04:53:32;;;;;;;41.67;28.35;;;;;;;13.13;100.00;101293.91;5074522;28;19945;-71
2023/05/22 04:55:57;;;;;;;42.00;30.35;;;;;;;13.13;100.00;101291.19;5096674;28;20040;-71
2023/05/22 04:58:22;;;;;;;41.53;28.08;;;;;;;13.16;100.00;101293.66;5092685;28;20038;-71
2023/05/22 05:00:51;;;;;;;39.97;28.20;;;;;;;13.20;100.00;101291.59;5072316;28;20028;-71
2023/05/22 05:03:16;;;;;;;43.13;27.08;;;;;;;13.19;100.00;101293.44;5079239;28;20122;-72
2023/05/22 05:05:42;;;;;;;47.55;27.48;;;;;;;13.21;100.00;101299.56;5080088;28;20170;-71
2023/05/22 05:08:07;;;;;;;39.78;27.77;;;;;;;13.23;100.00;101300.31;5095894;28;20035;-72
2023/05/22 05:10:32;;;;;;;36.50;27.33;;;;;;;13.24;100.00;101299.34;5102949;28;20031;-71
2023/05/22 05:12:57;;;;;;;39.55;27.65;;;;;;;13.26;100.00;101313.56;5074036;28;20364;-71
2023/05/22 05:15:23;;;;;;;38.90;27.98;;;;;;;13.28;100.00;101311.63;5095246;28;20026;-72
2023/05/22 05:17:48;;;;;;;44.78;29.80;;;;;;;13.32;100.00;101311.38;5074827;28;20097;-71
2023/05/22 05:20:14;;;;;;;45.40;29.52;;;;;;;13.35;100.00;101311.16;5082475;28;20395;-71
2023/05/22 05:22:39;;;;;;;39.25;26.85;;;;;;;13.38;100.00;101316.31;5100764;28;20104;-71
2023/05/22 05:25:06;;;;;;;40.83;27.70;;;;;;;13.39;100.00;101310.81;5095024;28;20043;-71
2023/05/22 05:27:31;;;;;;;42.63;28.15;;;;;;;13.41;100.00;101307.97;5070806;28;20141;-71
2023/05/22 05:29:56;;;;;;;38.53;28.85;;;;;;;13.44;100.00;101305.03;5085605;28;20110;-71
2023/05/22 05:32:21;;;;;;;43.92;29.00;;;;;;;13.46;100.00;101297.69;5094123;28;20032;-72
2023/05/22 05:34:47;;;;;;;42.28;27.90;;;;;;;13.47;100.00;101304.84;5101288;28;20088;-72
2023/05/22 05:37:13;;;;;;;46.25;30.60;;;;;;;13.48;100.00;101313.78;5078339;28;20499;-72
2023/05/22 05:39:38;;;;;;;42.28;29.95;;;;;;;13.53;100.00;101304.34;5076331;28;20118;-71
2023/05/22 05:42:03;;;;;;;46.85;31.25;;;;;;;13.55;100.00;101312.31;5102706;28;20095;-71
2023/05/22 05:44:28;;;;;;;43.25;29.92;;;;;;;13.56;100.00;101308.66;5081765;28;20482;-71
2023/05/22 05:46:54;;;;;;;46.28;30.65;;;;;;;13.63;100.00;101308.03;5074374;28;20034;-71
2023/05/22 05:49:19;;;;;;;45.50;29.92;;;;;;;13.66;100.00;101303.38;5077694;28;20023;-72
2023/05/22 05:51:47;;;;;;;42.72;29.45;;;;;;;13.69;100.00;101297.72;5099217;28;20474;-71
2023/05/22 05:54:12;;;;;;;46.15;29.20;;;;;;;13.72;100.00;101298.34;5081991;28;20115;-71
2023/05/22 05:56:38;;;;;;;42.55;31.35;;;;;;;13.77;100.00;101308.78;5096839;28;20122;-71
2023/05/22 05:59:04;;;;;;;44.75;31.52;;;;;;;13.79;100.00;101307.69;5088998;28;20031;-71
2023/05/22 06:01:31;;;;;;;47.67;31.52;;;;;;;13.86;100.00;101309.88;5083445;28;20108;-71
2023/05/22 06:04:01;;;;;;;47.10;31.58;;;;;;;13.88;100.00;101308.78;5089046;28;21719;-71
2023/05/22 06:06:28;;;;;;;45.60;33.05;;;;;;;13.90;100.00;101317.63;5096803;28;20414;-72
2023/05/22 06:08:54;;;;;;;45.30;32.78;;;;;;;13.95;100.00;101317.25;5088795;28;20032;-71
2023/05/22 06:11:20;;;;;;;49.33;32.55;;;;;;;13.98;100.00;101328.69;5090269;28;20034;-71
2023/05/22 06:13:46;;;;;;;50.33;32.45;;;;;;;14.04;100.00;101318.34;5100674;28;20025;-71
2023/05/22 06:16:11;;;;;;;45.35;33.03;;;;;;;14.08;100.00;101327.94;5093145;28;20066;-71
2023/05/22 06:18:36;;;;;;;43.85;33.88;;;;;;;14.12;100.00;101322.16;5097624;28;20094;-72
2023/05/22 06:21:01;;;;;;;48.47;33.03;;;;;;;14.18;100.00;101322.66;5092894;28;20372;-71
2023/05/22 06:23:27;;;;;;;50.15;33.33;;;;;;;14.18;100.00;101328.06;5079933;28;20044;-71
2023/05/22 06:25:52;;;;;;;46.65;31.65;;;;;;;14.22;100.00;101333.09;5069573;28;20019;-71
2023/05/22 06:28:18;;;;;;;46.65;35.40;;;;;;;14.20;100.00;101332.34;5081434;28;20028;-71
2023/05/22 06:30:43;;;;;;;44.95;34.58;;;;;;;14.22;100.00;101333.09;5083804;28;20446;-71
2023/05/22 06:33:08;;;;;;;43.67;33.35;;;;;;;14.24;100.00;101341.91;5080537;28;20024;-72
2023/05/22 06:35:34;;;;;;;47.15;36.63;;;;;;;14.26;100.00;101333.69;5083836;28;20501;-71
2023/05/22 06:37:59;;;;;;;51.67;35.50;;;;;;;14.28;100.00;101334.44;5093971;28;20027;-71
2023/05/22 06:40:25;;;;;;;52.53;37.25;;;;;;;14.31;100.00;101337.75;5070104;28;20035;-71
2023/05/22 06:42:51;;;;;;;48.55;36.35;;;;;;;14.38;100.00;101340.81;5089616;28;20113;-71
2023/05/22 06:45:18;;;;;;;55.25;38.08;;;;;;;14.41;100.00;101337.00;5074919;28;20112;-71
2023/05/22 06:47:44;;;;;;;59.28;41.67;;;;;;;14.42;100.00;101344.13;5089103;28;20114;-72
2023/05/22 06:50:10;;;;;;;56.55;42.40;;;;;;;14.48;100.00;101347.19;5089678;28;20031;-72
2023/05/22 06:52:35;;;;;;;56.03;41.65;;;;;;;14.56;100.00;101345.69;5079822;28;20085;-71
2023/05/22 06:55:04;;;;;;;61.50;43.47;;;;;;;14.59;100.00;101351.69;5081108;28;20031;-71
2023/05/22 06:57:32;;;;;;;60.43;42.70;;;;;;;14.65;100.00;101348.53;5099627;28;20482;-71
2023/05/22 06:59:58;;;;;;;66.43;42.15;;;;;;;14.69;100.00;101346.44;5102756;28;20281;-71
2023/05/22 07:02:23;;;;;;;57.72;42.40;;;;;;;14.68;100.00;101353.72;5098275;28;20073;-71
2023/05/22 07:04:48;;;;;;;69.68;44.15;;;;;;;14.66;100.00;101352.09;5095761;28;20085;-71
2023/05/22 07:07:14;;;;;;;65.40;42.53;;;;;;;14.66;100.00;101352.94;5104803;28;20040;-72
2023/05/22 07:09:39;;;;;;;66.38;43.00;;;;;;;14.62;100.00;101366.88;5098315;28;20374;-71
2023/05/22 07:12:05;;;;;;;65.85;45.45;;;;;;;14.59;100.00;101367.94;5087918;28;20157;-72
2023/05/22 07:14:30;;;;;;;70.53;45.80;;;;;;;14.57;100.00;101374.44;5097974;28;20015;-72
2023/05/22 07:16:56;;;;;;;63.58;44.17;;;;;;;14.60;100.00;101372.38;5100583;28;20027;-71
2023/05/22 07:19:21;;;;;;;68.00;43.78;;;;;;;14.63;100.00;101374.84;5099279;28;20035;-71
2023/05/22 07:21:46;;;;;;;69.28;45.35;;;;;;;14.67;100.00;101367.31;5100941;28;20024;-71
2023/05/22 07:24:12;;;;;;;65.70;45.58;;;;;;;14.68;100.00;101374.47;5078810;28;20107;-71
2023/05/22 07:26:37;;;;;;;67.35;45.08;;;;;;;14.75;100.00;101374.84;5098206;28;20117;-72
2023/05/22 07:29:03;;;;;;;70.03;45.08;;;;;;;14.80;100.00;101369.88;5097680;28;20360;-71
2023/05/22 07:31:30;;;;;;;77.20;45.38;;;;;;;14.83;100.00;101375.03;5097915;28;20161;-72
2023/05/22 07:33:55;;;;;;;64.65;44.97;;;;;;;14.91;100.00;101372.56;5078652;28;20020;-72
2023/05/22 07:36:24;;;;;;;75.05;46.72;;;;;;;14.98;100.00;101372.94;5097646;28;20024;-71
2023/05/22 07:38:49;;;;;;;73.45;45.95;;;;;;;15.00;100.00;101366.38;5079488;28;20035;-72
2023/05/22 07:41:14;;;;;;;68.88;43.60;;;;;;;15.06;100.00;101374.97;5098130;28;20039;-72
2023/05/22 07:43:40;;;;;;;75.32;47.58;;;;;;;15.12;100.00;101372.59;5103400;28;20118;-72
2023/05/22 07:46:09;;;;;;;84.32;48.45;;;;;;;15.18;100.00;101379.34;5082773;28;20042;-71
2023/05/22 07:48:34;;;;;;;67.55;44.50;;;;;;;15.24;100.00;101380.69;5100887;28;20023;-71
2023/05/22 07:51:02;;;;;;;63.85;44.55;;;;;;;15.33;100.00;101378.06;5094648;28;20029;-71
2023/05/22 07:53:27;;;;;;;65.65;43.50;;;;;;;15.41;100.00;101373.84;5083656;28;20039;-72
2023/05/22 07:55:53;;;;;;;61.70;46.38;;;;;;;15.46;100.00;101377.88;5100151;28;20044;-71
2023/05/22 07:58:18;;;;;;;66.07;48.17;;;;;;;15.50;100.00;101387.44;5096519;28;20471;-71
2023/05/22 08:00:44;;;;;;;61.60;46.65;;;;;;;15.56;100.00;101377.94;5102343;28;20027;-71
2023/05/22 08:03:09;;;;;;;67.10;47.50;;;;;;;15.64;100.00;101380.00;5103846;28;20034;-71
2023/05/22 08:05:35;;;;;;;73.45;48.45;;;;;;;15.71;100.00;101392.88;5100148;28;20023;-71
2023/05/22 08:08:01;;;;;;;70.72;45.80;;;;;;;15.76;100.00;101395.19;5100640;28;20540;-71
2023/05/22 08:10:27;;;;;;;67.65;49.05;;;;;;;15.78;100.00;101395.94;5088798;28;20032;-71
2023/05/22 08:12:52;;;;;;;67.72;47.35;;;;;;;15.86;100.00;101384.44;5099055;28;20373;-71
2023/05/22 08:15:18;;;;;;;76.55;47.80;;;;;;;15.89;100.00;101392.28;5095105;28;20019;-71
2023/05/22 08:17:43;;;;;;;77.00;48.35;;;;;;;15.96;100.00;101392.59;5097696;28;20020;-71
2023/05/22 08:20:09;;;;;;;85.70;49.75;;;;;;;16.00;100.00;101381.38;5102254;28;20107;-71
2023/05/22 08:22:37;;;;;;;74.50;48.25;;;;;;;16.07;100.00;101381.69;5082955;28;20074;-71
2023/05/22 08:25:03;;;;;;;82.13;51.08;;;;;;;16.11;100.00;101382.28;5076204;28;20051;-71
2023/05/22 08:27:28;;;;;;;84.50;51.47;;;;;;;16.18;100.00;101383.44;5082566;28;20054;-71
2023/05/22 08:29:53;;;;;;;66.80;47.33;;;;;;;16.22;100.00;101385.75;5081738;28;20036;-71
2023/05/22 08:32:19;;;;;;;80.13;51.03;;;;;;;16.26;100.00;101386.34;5094674;28;20071;-71
2023/05/22 08:34:44;;;;;;;77.70;52.22;;;;;;;16.30;100.00;101379.63;5075662;28;20016;-71
2023/05/22 08:37:11;;;;;;;71.38;51.38;;;;;;;16.36;100.00;101376.38;5082664;28;20035;-71
2023/05/22 08:39:36;;;;;;;72.50;48.70;;;;;;;16.42;100.00;101383.97;5102667;28;20032;-71
2023/05/22 08:42:02;;;;;;;77.13;48.35;;;;;;;16.53;100.00;101392.97;5095083;28;20539;-71
2023/05/22 08:44:27;;;;;;;71.80;51.15;;;;;;;16.56;100.00;101385.44;5097022;28;20057;-71
2023/05/22 08:46:55;;;;;;;74.50;46.78;;;;;;;16.62;100.00;101391.28;5095664;28;20252;-71
2023/05/22 08:49:21;;;;;;;77.90;49.53;;;;;;;16.61;100.00;101379.59;5094532;28;20078;-71
2023/05/22 08:51:53;;;;;;;80.35;51.70;;;;;;;16.67;100.00;101384.47;5101105;28;20050;-71
2023/05/22 08:54:21;;;;;;;77.30;47.45;;;;;;;16.70;100.00;101389.59;5093342;28;20035;-71
2023/05/22 08:56:48;;;;;;;79.68;49.72;;;;;;;16.74;100.00;101380.19;5089684;28;20048;-71
2023/05/22 08:59:14;;;;;;;77.78;49.78;;;;;;;16.75;100.00;101390.06;5089861;28;20034;-71
2023/05/22 09:01:40;;;;;;;70.45;47.25;;;;;;;16.77;100.00;101390.75;5074886;28;20046;-71
2023/05/22 09:04:05;;;;;;;68.40;46.60;;;;;;;16.82;100.00;101384.06;5096807;28;20453;-71
2023/05/22 09:06:31;;;;;;;67.90;44.75;;;;;;;16.87;100.00;101384.50;5102887;28;20102;-71
2023/05/22 09:08:58;;;;;;;67.80;45.42;;;;;;;16.95;100.00;101381.97;5091886;28;20028;-71
2023/05/22 09:11:24;;;;;;;65.50;44.72;;;;;;;17.02;100.00;101387.69;5078860;28;20028;-71
2023/05/22 09:13:50;;;;;;;71.35;46.25;;;;;;;17.08;100.00;101387.97;5096606;28;20432;-71
2023/05/22 09:16:17;;;;;;;69.95;46.17;;;;;;;17.07;100.00;101386.28;5075011;28;20031;-72
2023/05/22 09:18:43;;;;;;;72.03;45.63;;;;;;;17.08;100.00;101385.25;5101251;28;20036;-71
2023/05/22 09:21:09;;;;;;;63.75;41.92;;;;;;;17.11;100.00;101392.28;5077532;28;20159;-71
2023/05/22 09:23:35;;;;;;;58.67;40.92;;;;;;;17.09;100.00;101389.69;5102706;28;20111;-71
2023/05/22 09:26:01;;;;;;;61.58;42.58;;;;;;;17.16;100.00;101387.28;5075208;28;20514;-71
2023/05/22 09:28:35;;;;;;;62.28;42.70;;;;;;;17.21;100.00;101384.13;5092959;28;20372;-72
2023/05/22 09:31:02;;;;;;;64.45;42.28;;;;;;;17.27;100.00;101389.00;5077154;28;20028;-72
2023/05/22 09:33:28;;;;;;;53.75;40.88;;;;;;;17.27;100.00;101380.84;5080480;28;20042;-72
2023/05/22 09:35:53;;;;;;;59.00;41.75;;;;;;;17.34;100.00;101379.28;5096200;28;20088;-71
2023/05/22 09:38:21;;;;;;;54.20;40.17;;;;;;;17.40;100.00;101381.41;5076308;28;20035;-74
2023/05/22 09:40:52;;;;;;;53.40;39.03;;;;;;;17.38;99.87;101383.41;5087669;28;20038;-70
2023/05/22 09:43:17;;;;;;;56.63;37.55;;;;;;;17.42;99.45;101373.09;5101145;28;20039;-70
2023/05/22 09:45:42;;;;;;;62.17;40.40;;;;;;;17.53;100.00;101380.25;5098670;28;20039;-70
2023/05/22 09:48:08;;;;;;;55.35;38.53;;;;;;;17.59;99.77;101379.69;5099766;28;20020;-71
2023/05/22 09:50:38;;;;;;;56.50;39.30;;;;;;;17.67;100.00;101371.63;5090801;28;20066;-70
2023/05/22 09:53:04;;;;;;;54.88;37.80;;;;;;;17.76;100.00;101369.91;5080466;28;20110;-71
2023/05/22 09:55:30;;;;;;;56.88;37.83;;;;;;;17.75;99.24;101368.19;5103990;28;20528;-71
2023/05/22 09:57:57;;;;;;;51.88;36.13;;;;;;;17.72;100.00;101361.19;5095668;28;20398;-72
2023/05/22 10:00:24;;;;;;;52.85;36.42;;;;;;;17.74;100.00;101367.31;5098779;28;20390;-72
2023/05/22 10:02:57;;;;;;;53.58;37.47;;;;;;;17.78;100.00;101363.31;5096191;28;20085;-71
2023/05/22 10:05:28;;;;;;;54.53;36.67;;;;;;;17.83;100.00;101368.31;5086138;28;20024;-72
2023/05/22 10:07:55;;;;;;;51.72;36.10;;;;;;;17.88;100.00;101368.72;5073210;28;20028;-71
2023/05/22 10:10:23;;;;;;;52.30;36.55;;;;;;;17.91;100.00;101373.06;5090595;28;20028;-71
2023/05/22 10:13:02;;;;;;;54.60;38.10;;;;;;;17.86;98.40;101376.16;5091106;28;20043;-72
2023/05/22 10:15:28;;;;;;;49.38;36.38;;;;;;;17.93;100.00;101360.16;5099914;28;20034;-72
2023/05/22 10:17:54;;;;;;;58.55;36.55;;;;;;;18.01;99.93;101362.13;5077543;28;20504;-71
2023/05/22 10:20:19;;;;;;;49.35;36.40;;;;;;;18.08;100.00;101353.25;5080971;28;20031;-72
2023/05/22 10:22:47;;;;;;;52.53;35.33;;;;;;;18.20;100.00;101364.78;5077593;28;20024;-72
2023/05/22 10:25:13;;;;;;;47.42;35.40;;;;;;;18.24;97.68;101368.06;5074655;28;20027;-71
2023/05/22 10:27:39;;;;;;;49.47;37.03;;;;;;;18.34;100.00;101358.81;5091007;28;20032;-72
2023/05/22 10:30:26;;;;;;;51.28;35.65;;;;;;;18.46;100.00;101361.34;5076136;28;20479;-72
2023/05/22 10:32:55;;;;;;;54.90;38.38;;;;;;;18.56;99.18;101353.13;5075491;28;20085;-72
2023/05/22 10:35:26;;;;;;;49.67;35.13;;;;;;;18.54;98.34;101355.13;5098045;28;20024;-72
2023/05/22 10:38:03;;;;;;;49.55;36.22;;;;;;;18.58;97.81;101348.38;5098026;28;20253;-71
2023/05/22 10:40:32;;;;;;;47.38;33.80;;;;;;;18.60;96.06;101346.38;5069984;28;20159;-71
2023/05/22 10:42:58;;;;;;;54.08;36.03;;;;;;;18.65;97.45;101353.09;5096993;28;20027;-72
2023/05/22 10:45:28;;;;;;;43.65;32.83;;;;;;;18.69;96.15;101345.44;5098627;28;20042;-71
2023/05/22 10:48:06;;;;;;;;;;;;;;;18.70;96.60;101352.63;5094222;28;20390;-71
2023/05/22 10:50:32;;;;;;;50.47;34.83;;;;;;;18.81;96.39;101341.47;5093463;28;20297;-71
2023/05/22 10:53:18;;;;;;;46.72;32.92;;;;;;;18.90;97.69;101344.34;5079269;28;20045;-71
2023/05/22 10:55:51;;;;;;;42.92;31.42;;;;;;;18.97;95.80;101353.59;5103084;28;20040;-70
2023/05/22 10:58:17;;;;;;;48.72;36.00;;;;;;;18.99;97.19;101351.56;5097886;28;20094;-69
2023/05/22 11:00:43;;;;;;;44.38;32.95;;;;;;;18.97;94.29;101342.72;5102548;28;20028;-71